Dripping Springs' Hourly Summary for Monday, July 9, 2018
Hour Temp
(f)
RH
(%)
Solar Rad.
(MJ/m2)
Rainfall
(in)
Wind
(mph)
7/9/2018 12:00 AM 74 91 0 0 0.13
7/9/2018 1:00 AM 73 93 0 0 0.57
7/9/2018 2:00 AM 72 95 0 0 0.57
7/9/2018 3:00 AM 72 96 0 0 0.02
7/9/2018 4:00 AM 72 97 0 0 0
7/9/2018 5:00 AM 72 97 0 0 0
7/9/2018 6:00 AM 72 97 0.01 0 0
7/9/2018 7:00 AM 72 97 0.08 0.08 1.95
7/9/2018 8:00 AM 73 97 0.08 0.07 1.95
7/9/2018 9:00 AM 73 97 0.22 0.04 0.19
7/9/2018 10:00 AM 75 97 1.43 0.01 0.28
7/9/2018 11:00 AM 78 90 1.7 0 2.08
7/9/2018 12:00 PM 78 79 1.7 0.01 2.4
7/9/2018 1:00 PM 78 91 1 0.04 2.59
7/9/2018 2:00 PM 75 91 0.81 0.03 2.59
7/9/2018 3:00 PM 75 90 0.81 0.01 2.64
7/9/2018 4:00 PM 75 90 0.98 0 2.65
7/9/2018 5:00 PM 77 84 0.98 0 2.85
7/9/2018 6:00 PM 77 82 0.68 0 2.85
7/9/2018 7:00 PM 77 84 0.43 0 2.04
7/9/2018 8:00 PM 77 87 0.25 0 2.04
7/9/2018 9:00 PM 76 91 0.04 0 1.85
7/9/2018 10:00 PM 74 94 0 0 2.26
7/9/2018 11:00 PM 73 94 0 0 2.26
Data Summary 74 91 11.20 0.29 1.53